createdAt,value
2019-04-25T00:01:32.941Z,55.70
2019-04-25T00:04:02.004Z,56.20
2019-04-25T00:06:32.100Z,56.40
2019-04-25T00:09:01.829Z,56.60
2019-04-25T00:11:31.260Z,56.60
2019-04-25T00:13:59.223Z,56.90
2019-04-25T00:16:28.818Z,57.10
2019-04-25T00:18:56.949Z,57.30
2019-04-25T00:21:34.096Z,57.70
2019-04-25T00:24:06.125Z,58.30
2019-04-25T00:26:53.490Z,58.60
2019-04-25T00:29:22.028Z,58.80
2019-04-25T00:31:51.353Z,59.00
2019-04-25T00:34:19.264Z,59.40
2019-04-25T00:36:47.075Z,59.70
2019-04-25T00:39:14.936Z,59.80
2019-04-25T00:41:45.162Z,60.30
2019-04-25T00:44:12.328Z,60.70
2019-04-25T00:46:40.134Z,61.50
2019-04-25T00:49:08.160Z,62.20
2019-04-25T00:51:35.972Z,63.10
2019-04-25T00:54:03.882Z,64.00
2019-04-25T00:56:32.214Z,64.80
2019-04-25T00:59:18.030Z,66.00
2019-04-25T01:02:03.225Z,67.10
2019-04-25T01:04:33.564Z,67.80
2019-04-25T01:07:01.515Z,68.50
2019-04-25T01:09:29.949Z,69.70
2019-04-25T01:11:57.730Z,69.50
2019-04-25T01:14:25.526Z,69.60
2019-04-25T01:16:53.924Z,70.40
2019-04-25T01:19:23.447Z,70.60
2019-04-25T01:21:51.499Z,71.40
2019-04-25T01:24:19.442Z,72.10
2019-04-25T01:26:47.508Z,73.50
2019-04-25T01:29:15.349Z,73.60
2019-04-25T01:31:43.478Z,74.50
2019-04-25T01:34:14.135Z,74.40
2019-04-25T01:37:04.215Z,74.80
2019-04-25T01:39:49.311Z,75.40
2019-04-25T01:42:51.582Z,76.20
2019-04-25T01:45:21.860Z,76.10
2019-04-25T01:47:50.150Z,76.90
2019-04-25T01:50:17.909Z,77.50
2019-04-25T01:52:45.791Z,77.90
2019-04-25T01:55:13.805Z,78.90
2019-04-25T01:57:41.680Z,80.00
2019-04-25T02:00:11.704Z,82.20
2019-04-25T02:02:39.519Z,83.10
2019-04-25T02:05:07.418Z,83.70
2019-04-25T02:07:35.533Z,84.10
2019-04-25T02:10:04.079Z,84.50
2019-04-25T02:12:40.820Z,83.60
2019-04-25T02:15:08.962Z,84.00
2019-04-25T02:17:36.918Z,84.00
2019-04-25T02:20:05.086Z,84.00
2019-04-25T02:22:34.182Z,85.40
2019-04-25T02:25:04.466Z,86.40
2019-04-25T02:27:32.278Z,87.10
2019-04-25T02:30:01.035Z,87.10
2019-04-25T02:32:28.861Z,88.50
2019-04-25T02:35:00.593Z,87.50
2019-04-25T02:37:26.284Z,88.50
2019-04-25T02:39:58.018Z,89.30
2019-04-25T02:42:24.650Z,89.80
2019-04-25T02:45:03.170Z,90.50
2019-04-25T02:47:56.241Z,90.50
2019-04-25T02:50:49.203Z,90.60
2019-04-25T02:53:36.644Z,91.10
2019-04-25T02:56:07.949Z,91.50
2019-04-25T02:58:34.286Z,92.00
2019-04-25T03:01:16.244Z,93.20
2019-04-25T03:03:34.788Z,93.20
2019-04-25T03:06:03.718Z,93.40
2019-04-25T03:08:32.634Z,93.50
2019-04-25T03:11:01.427Z,93.90
2019-04-25T03:13:29.534Z,94.30
2019-04-25T03:15:58.550Z,94.80
2019-04-25T03:18:28.324Z,95.30
2019-04-25T03:21:18.082Z,95.70
2019-04-25T03:23:47.971Z,96.60
2019-04-25T03:26:15.781Z,97.10
2019-04-25T03:28:43.888Z,98.10
2019-04-25T03:31:18.627Z,98.50
2019-04-25T03:33:41.520Z,98.90
2019-04-25T03:36:09.442Z,99.60
2019-04-25T03:38:37.267Z,99.80
2019-04-25T03:41:06.142Z,99.80
2019-04-25T03:43:34.853Z,99.60
2019-04-25T03:46:04.945Z,99.10
2019-04-25T03:48:35.186Z,99.30
2019-04-25T03:51:02.845Z,98.90
2019-04-25T03:53:31.765Z,98.50
2019-04-25T03:55:59.633Z,98.40
2019-04-25T03:58:27.417Z,98.40
2019-04-25T04:00:55.359Z,98.40
2019-04-25T04:03:23.814Z,98.40
2019-04-25T04:05:51.668Z,98.00
2019-04-25T04:08:19.555Z,97.20
2019-04-25T04:10:47.341Z,96.90
2019-04-25T04:13:15.861Z,96.40
2019-04-25T04:15:43.775Z,95.80
2019-04-25T04:18:20.323Z,95.20
2019-04-25T04:21:17.267Z,94.90
2019-04-25T04:23:52.327Z,94.60
2019-04-25T04:26:20.159Z,94.40
2019-04-25T04:28:47.939Z,94.30
2019-04-25T04:31:16.543Z,94.40
2019-04-25T04:33:44.594Z,94.50
2019-04-25T04:36:14.649Z,94.90
2019-04-25T04:38:42.128Z,94.90
2019-04-25T04:41:09.986Z,94.90
2019-04-25T04:43:37.758Z,95.20
2019-04-25T04:46:05.750Z,95.40
2019-04-25T04:48:34.202Z,95.50
2019-04-25T04:51:03.427Z,95.50
2019-04-25T04:53:31.574Z,95.20
2019-04-25T04:55:59.393Z,94.60
2019-04-25T04:58:27.275Z,94.20
2019-04-25T05:00:55.207Z,93.90
2019-04-25T05:03:44.086Z,94.40
2019-04-25T05:06:31.639Z,94.60
2019-04-25T05:09:07.938Z,95.00
2019-04-25T05:11:35.820Z,94.80
2019-04-25T05:14:04.040Z,94.60
2019-04-25T05:16:33.188Z,94.40
2019-04-25T05:19:01.256Z,94.20
2019-04-25T05:21:29.042Z,93.70
2019-04-25T05:23:56.911Z,93.60
2019-04-25T05:26:25.044Z,93.50
2019-04-25T05:28:53.312Z,93.50
2019-04-25T05:31:37.659Z,93.20
2019-04-25T05:34:05.582Z,93.20
2019-04-25T05:36:39.323Z,93.30
2019-04-25T05:39:09.321Z,92.90
2019-04-25T05:41:44.275Z,92.00
2019-04-25T05:44:12.129Z,91.60
2019-04-25T05:46:42.089Z,91.30
2019-04-25T05:49:10.182Z,90.50
2019-04-25T05:51:38.129Z,90.20
2019-04-25T05:54:06.011Z,89.80
2019-04-25T05:56:33.971Z,90.00
2019-04-25T05:59:03.377Z,89.70
2019-04-25T06:01:31.503Z,89.50
2019-04-25T06:03:59.334Z,88.40
2019-04-25T06:06:27.234Z,88.00
2019-04-25T06:09:03.735Z,89.40
2019-04-25T06:11:48.757Z,90.40
2019-04-25T06:14:18.308Z,90.40
2019-04-25T06:16:46.234Z,89.80
2019-04-25T06:19:33.709Z,90.00
2019-04-25T06:22:03.191Z,90.10
2019-04-25T06:24:45.042Z,90.30
2019-04-25T06:27:33.240Z,90.40
2019-04-25T06:30:08.603Z,90.40
2019-04-25T06:32:36.454Z,90.30
2019-04-25T06:35:05.760Z,90.20
2019-04-25T06:37:35.046Z,90.20
2019-04-25T06:40:05.148Z,90.10
2019-04-25T06:42:34.690Z,89.60
2019-04-25T06:45:21.499Z,89.50
2019-04-25T06:48:11.718Z,90.10
2019-04-25T06:50:39.567Z,90.20
2019-04-25T06:53:07.413Z,90.90
2019-04-25T06:55:35.274Z,90.80
2019-04-25T06:58:10.199Z,90.70
2019-04-25T07:00:40.766Z,90.30
2019-04-25T07:03:04.179Z,90.20
2019-04-25T07:05:35.869Z,90.30
2019-04-25T07:08:03.198Z,89.80
2019-04-25T07:10:31.532Z,90.20
2019-04-25T07:13:00.919Z,90.30
2019-04-25T07:15:29.533Z,89.90
2019-04-25T07:17:57.479Z,90.00
2019-04-25T07:20:27.039Z,90.20
2019-04-25T07:22:55.559Z,90.20
2019-04-25T07:25:27.110Z,89.30
2019-04-25T07:28:32.836Z,89.30
2019-04-25T07:31:36.986Z,88.70
2019-04-25T07:34:13.307Z,88.70
2019-04-25T07:36:41.141Z,87.30
2019-04-25T07:39:10.564Z,87.30
2019-04-25T07:41:38.824Z,87.60
2019-04-25T07:44:06.723Z,87.70
2019-04-25T07:46:38.582Z,87.80
2019-04-25T07:49:04.468Z,88.80
2019-04-25T07:51:34.313Z,88.40
2019-04-25T07:54:01.956Z,88.00
2019-04-25T07:56:29.770Z,87.80
2019-04-25T07:58:57.617Z,87.30
2019-04-25T08:01:25.482Z,87.50
2019-04-25T08:03:53.836Z,86.80
2019-04-25T08:06:22.653Z,86.50
2019-04-25T08:08:51.707Z,87.40
2019-04-25T08:11:19.551Z,87.00
2019-04-25T08:13:53.573Z,86.00
2019-04-25T08:16:23.367Z,86.90
2019-04-25T08:18:51.442Z,86.60
2019-04-25T08:21:19.526Z,86.80
2019-04-25T08:23:48.704Z,85.70
2019-04-25T08:26:16.564Z,84.60
2019-04-25T08:28:54.436Z,84.60
2019-04-25T08:31:14.072Z,84.80
2019-04-25T08:33:43.478Z,84.00
2019-04-25T08:36:11.611Z,83.80
2019-04-25T08:38:40.246Z,83.40
2019-04-25T08:41:08.277Z,83.10
2019-04-25T08:43:37.749Z,82.90
2019-04-25T08:46:06.026Z,81.60
2019-04-25T08:48:54.019Z,82.30
2019-04-25T08:51:23.398Z,80.40
2019-04-25T08:53:59.910Z,81.80
2019-04-25T08:56:31.930Z,80.90
2019-04-25T08:59:32.755Z,81.30
2019-04-25T09:02:10.225Z,81.10
2019-04-25T09:04:43.008Z,81.80
2019-04-25T09:07:13.454Z,81.30
2019-04-25T09:09:41.534Z,82.70
2019-04-25T09:12:09.416Z,81.30
2019-04-25T09:14:37.823Z,79.90
2019-04-25T09:17:05.788Z,81.30
2019-04-25T09:19:35.986Z,79.80
2019-04-25T09:22:03.413Z,79.80
2019-04-25T09:24:31.281Z,78.60
2019-04-25T09:26:59.093Z,78.70
2019-04-25T09:29:26.960Z,77.90
2019-04-25T09:31:54.785Z,77.60
2019-04-25T09:34:23.786Z,77.20
2019-04-25T09:36:53.484Z,77.00
2019-04-25T09:39:29.088Z,76.50
2019-04-25T09:41:56.991Z,76.30
2019-04-25T09:44:30.436Z,76.70
2019-04-25T09:46:58.264Z,76.70
2019-04-25T09:49:30.441Z,76.50
2019-04-25T09:52:06.401Z,77.00
2019-04-25T09:54:53.718Z,76.30
2019-04-25T09:57:44.523Z,75.30
2019-04-25T10:00:23.182Z,75.10
2019-04-25T10:02:51.068Z,74.80
2019-04-25T10:05:18.935Z,72.50
2019-04-25T10:07:48.891Z,71.90
2019-04-25T10:10:16.658Z,72.10
2019-04-25T10:12:45.278Z,72.00
2019-04-25T10:15:19.938Z,71.70
2019-04-25T10:17:47.823Z,70.90
2019-04-25T10:20:17.564Z,70.10
2019-04-25T10:22:45.696Z,70.00
2019-04-25T10:25:15.315Z,71.00
2019-04-25T10:27:46.506Z,71.30
2019-04-25T10:30:19.050Z,70.00
2019-04-25T10:32:44.295Z,69.80
2019-04-25T10:35:14.665Z,69.40
2019-04-25T10:37:43.712Z,67.40
2019-04-25T10:40:13.505Z,67.80
2019-04-25T10:42:41.318Z,67.70
2019-04-25T10:45:20.410Z,67.40
2019-04-25T10:47:40.200Z,67.20
2019-04-25T10:50:08.912Z,67.50
2019-04-25T10:52:36.820Z,67.40
2019-04-25T10:55:05.176Z,67.50
2019-04-25T10:57:33.980Z,66.10
2019-04-25T11:00:07.548Z,66.80
2019-04-25T11:02:33.550Z,66.50
2019-04-25T11:05:08.271Z,66.30
2019-04-25T11:07:36.129Z,65.10
2019-04-25T11:10:05.115Z,66.00
2019-04-25T11:12:33.827Z,65.30
2019-04-25T11:15:03.846Z,65.90
2019-04-25T11:17:31.773Z,65.90
2019-04-25T11:19:59.584Z,66.40
2019-04-25T11:22:27.580Z,65.70
2019-04-25T11:24:55.393Z,65.50
2019-04-25T11:27:23.976Z,64.00
2019-04-25T11:29:53.553Z,64.20
2019-04-25T11:32:24.124Z,64.00
2019-04-25T11:34:53.478Z,63.80
2019-04-25T11:37:23.925Z,63.90
2019-04-25T11:39:59.341Z,63.80
2019-04-25T11:42:27.570Z,62.90
2019-04-25T11:44:55.591Z,62.70
2019-04-25T11:47:24.264Z,62.10
2019-04-25T11:49:52.255Z,62.20
2019-04-25T11:52:27.579Z,62.90
2019-04-25T11:54:50.085Z,62.00
2019-04-25T11:57:18.009Z,62.20
2019-04-25T11:59:48.904Z,61.90
2019-04-25T12:02:15.674Z,61.50
2019-04-25T12:04:45.438Z,60.40
2019-04-25T12:07:14.334Z,59.80
2019-04-25T12:09:43.156Z,59.80
2019-04-25T12:12:11.895Z,59.90
2019-04-25T12:14:39.812Z,59.80
2019-04-25T12:17:07.759Z,58.20
2019-04-25T12:19:37.891Z,57.80
2019-04-25T12:22:05.351Z,58.40
2019-04-25T12:24:33.559Z,57.90
2019-04-25T12:27:01.801Z,58.40
2019-04-25T12:29:29.645Z,57.70
2019-04-25T12:31:58.584Z,57.10
2019-04-25T12:34:26.569Z,56.20
2019-04-25T12:36:55.266Z,56.20
2019-04-25T12:39:24.359Z,56.20
2019-04-25T12:41:53.989Z,56.40
2019-04-25T12:44:46.274Z,55.50
2019-04-25T12:47:17.720Z,55.70
2019-04-25T12:49:46.625Z,55.70
2019-04-25T12:52:14.889Z,55.80
2019-04-25T12:54:44.080Z,55.50
2019-04-25T12:57:14.092Z,55.80
2019-04-25T12:59:44.952Z,55.40
2019-04-25T13:02:13.613Z,55.40
2019-04-25T13:04:41.601Z,55.70
2019-04-25T13:07:09.812Z,55.50
2019-04-25T13:09:37.930Z,55.40
2019-04-25T13:12:06.283Z,55.70
2019-04-25T13:14:34.103Z,55.10
2019-04-25T13:17:03.821Z,55.50
2019-04-25T13:19:31.559Z,55.80
2019-04-25T13:21:59.411Z,56.00
2019-04-25T13:24:27.229Z,56.20
2019-04-25T13:27:01.363Z,56.20
2019-04-25T13:29:57.341Z,56.40
2019-04-25T13:32:43.321Z,56.50
2019-04-25T13:35:20.712Z,56.60
2019-04-25T13:37:48.541Z,56.50
2019-04-25T13:40:17.604Z,55.70
2019-04-25T13:42:46.156Z,55.90
2019-04-25T13:45:15.427Z,55.90
2019-04-25T13:47:43.230Z,55.90
2019-04-25T13:50:12.957Z,55.60
2019-04-25T13:52:41.055Z,55.60
2019-04-25T13:55:09.073Z,55.60
2019-04-25T13:57:37.025Z,55.50
2019-04-25T14:00:05.521Z,55.50
2019-04-25T14:02:33.312Z,55.50
2019-04-25T14:05:01.124Z,54.20
2019-04-25T14:07:29.564Z,54.00
2019-04-25T14:09:57.486Z,54.00
2019-04-25T14:12:26.890Z,53.70
2019-04-25T14:14:55.187Z,54.30
2019-04-25T14:17:51.053Z,55.30
2019-04-25T14:20:53.750Z,55.60
2019-04-25T14:23:24.459Z,55.60
2019-04-25T14:25:52.797Z,55.60
2019-04-25T14:28:20.929Z,55.70
2019-04-25T14:30:49.765Z,56.00
2019-04-25T14:33:17.630Z,55.70
2019-04-25T14:35:45.405Z,56.10
2019-04-25T14:38:13.851Z,56.40
2019-04-25T14:40:42.293Z,56.40
2019-04-25T14:43:10.823Z,56.30
2019-04-25T14:45:44.788Z,56.00
2019-04-25T14:48:10.887Z,55.70
2019-04-25T14:50:38.801Z,55.90
2019-04-25T14:53:06.606Z,55.90
2019-04-25T14:55:53.973Z,56.40
2019-04-25T14:58:26.125Z,56.70
2019-04-25T15:00:53.381Z,57.10
2019-04-25T15:03:21.293Z,57.30
2019-04-25T15:05:49.204Z,58.10
2019-04-25T15:08:17.491Z,57.80
2019-04-25T15:10:45.313Z,57.90
2019-04-25T15:13:13.287Z,58.20
2019-04-25T15:15:41.296Z,58.20
2019-04-25T15:18:09.182Z,58.70
2019-04-25T15:20:37.020Z,59.10
2019-04-25T15:23:04.870Z,59.40
2019-04-25T15:25:32.837Z,59.70
2019-04-25T15:28:00.814Z,60.30
2019-04-25T15:30:31.094Z,60.60
2019-04-25T15:33:00.631Z,60.70
2019-04-25T15:35:40.868Z,61.10
2019-04-25T15:38:13.832Z,61.10
2019-04-25T15:40:47.451Z,61.40
2019-04-25T15:43:26.192Z,61.70
2019-04-25T15:45:59.531Z,62.60
2019-04-25T15:48:27.336Z,62.70
2019-04-25T15:50:55.633Z,63.30
2019-04-25T15:53:23.624Z,63.30
2019-04-25T15:55:51.649Z,63.10
2019-04-25T15:58:19.615Z,63.50
2019-04-25T16:00:47.464Z,64.20
2019-04-25T16:03:15.542Z,63.60
2019-04-25T16:05:43.421Z,63.70
2019-04-25T16:08:11.298Z,63.80
2019-04-25T16:10:39.417Z,63.80
2019-04-25T16:13:07.625Z,63.80
2019-04-25T16:15:36.127Z,63.40
2019-04-25T16:18:05.262Z,63.50
2019-04-25T16:20:33.562Z,63.50
2019-04-25T16:23:01.561Z,63.40
2019-04-25T16:25:29.968Z,63.70
2019-04-25T16:27:58.057Z,63.40
2019-04-25T16:30:29.911Z,63.40
2019-04-25T16:32:57.871Z,63.30
2019-04-25T16:40:41.444Z,65.00
2019-04-25T16:43:12.094Z,65.20
2019-04-25T16:45:39.889Z,65.40
2019-04-25T16:48:07.879Z,65.80
2019-04-25T16:50:36.512Z,66.20
2019-04-25T16:53:04.591Z,66.70
2019-04-25T16:55:32.361Z,67.40
2019-04-25T16:58:00.290Z,67.80
2019-04-25T17:00:40.897Z,67.60
2019-04-25T17:03:08.879Z,68.50
2019-04-25T17:05:37.994Z,69.20
2019-04-25T17:08:05.920Z,69.60
2019-04-25T17:10:34.770Z,69.80
2019-04-25T17:13:02.666Z,70.00
2019-04-25T17:15:48.439Z,70.50
2019-04-25T17:18:22.420Z,70.80
2019-04-25T17:21:06.974Z,71.10
2019-04-25T17:23:34.958Z,71.60
2019-04-25T17:26:03.652Z,72.00
2019-04-25T17:28:34.888Z,72.50
2019-04-25T17:31:22.915Z,72.60
2019-04-25T17:34:00.934Z,72.70
2019-04-25T17:36:38.598Z,72.70
2019-04-25T17:39:42.189Z,73.00
2019-04-25T17:42:10.272Z,73.50
2019-04-25T17:44:38.379Z,73.60
2019-04-25T17:47:06.923Z,74.00
2019-04-25T17:49:34.923Z,74.20
2019-04-25T17:52:03.084Z,74.30
2019-04-25T17:54:32.753Z,74.90
2019-04-25T17:57:00.750Z,75.50
2019-04-25T17:59:28.659Z,75.90
2019-04-25T18:01:56.708Z,76.20
2019-04-25T18:04:24.741Z,76.50
2019-04-25T18:06:52.751Z,76.50
2019-04-25T18:09:20.773Z,76.40
2019-04-25T18:11:48.750Z,76.30
2019-04-25T18:14:16.985Z,76.40
2019-04-25T18:16:46.271Z,76.30
2019-04-25T18:19:19.310Z,76.00
2019-04-25T18:21:47.245Z,76.30
2019-04-25T18:24:54.106Z,74.90
2019-04-25T18:27:26.210Z,74.20
2019-04-25T18:29:54.622Z,72.50
2019-04-25T18:32:24.178Z,71.50
2019-04-25T18:35:02.500Z,70.90
2019-04-25T18:37:52.587Z,69.30
2019-04-25T18:40:31.843Z,69.30
2019-04-25T18:43:21.849Z,69.00
2019-04-25T18:45:54.079Z,68.70
2019-04-25T18:48:21.985Z,68.70
2019-04-25T18:50:49.877Z,68.40
2019-04-25T18:53:55.436Z,68.10
2019-04-25T18:56:45.630Z,67.80
2019-04-25T18:59:29.658Z,66.90
2019-04-25T19:02:19.649Z,67.80
2019-04-25T19:05:09.861Z,67.90
2019-04-25T19:07:38.617Z,68.10
2019-04-25T19:10:08.607Z,68.00
2019-04-25T19:12:37.676Z,67.90
2019-04-25T19:15:05.850Z,68.10
2019-04-25T19:17:33.829Z,68.20
2019-04-25T19:20:01.738Z,68.20
2019-04-25T19:22:29.720Z,68.10
2019-04-25T19:24:57.778Z,68.10
2019-04-25T19:27:25.734Z,68.10
2019-04-25T19:29:53.778Z,68.10
2019-04-25T19:32:21.724Z,68.70
2019-04-25T19:34:50.910Z,72.40
2019-04-25T19:37:48.547Z,73.90
2019-04-25T19:40:30.268Z,74.50
2019-04-25T19:43:03.254Z,75.50
2019-04-25T19:45:33.248Z,76.20
2019-04-25T19:48:02.309Z,77.30
2019-04-25T19:50:30.281Z,78.10
2019-04-25T19:52:58.085Z,78.80
2019-04-25T19:55:26.022Z,79.80
2019-04-25T19:57:54.035Z,80.60
2019-04-25T20:00:22.284Z,81.00
2019-04-25T20:02:57.675Z,81.80
2019-04-25T20:05:35.038Z,82.50
2019-04-25T20:08:31.218Z,83.20
2019-04-25T20:11:02.800Z,83.90
2019-04-25T20:13:30.776Z,84.20
2019-04-25T20:15:59.404Z,84.80
2019-04-25T20:18:27.434Z,85.70
2019-04-25T20:20:55.237Z,86.30
2019-04-25T20:23:23.084Z,86.80
2019-04-25T20:25:51.469Z,87.40
2019-04-25T20:28:19.276Z,87.30
2019-04-25T20:30:47.162Z,88.70
2019-04-25T20:33:15.141Z,89.70
2019-04-25T20:35:42.935Z,90.10
2019-04-25T20:38:10.729Z,90.50
2019-04-25T20:40:38.607Z,90.80
2019-04-25T20:43:06.403Z,91.10
2019-04-25T20:45:34.426Z,91.40
2019-04-25T20:48:03.580Z,91.70
2019-04-25T20:50:31.409Z,91.80
2019-04-25T20:53:01.079Z,92.00
2019-04-25T20:55:30.842Z,92.20
2019-04-25T20:57:58.521Z,92.40
2019-04-25T21:00:40.529Z,92.80
2019-04-25T21:03:08.423Z,93.00
2019-04-25T21:05:36.508Z,93.30
2019-04-25T21:08:04.438Z,93.40
2019-04-25T21:10:32.497Z,93.40
2019-04-25T21:13:00.704Z,93.80
2019-04-25T21:15:54.110Z,94.20
2019-04-25T21:18:37.113Z,94.40
2019-04-25T21:21:04.911Z,94.80
2019-04-25T21:23:32.790Z,94.90
2019-04-25T21:26:01.229Z,95.40
2019-04-25T21:28:29.247Z,95.90
2019-04-25T21:30:57.069Z,96.60
2019-04-25T21:33:24.899Z,97.10
2019-04-25T21:35:53.301Z,97.80
2019-04-25T21:38:21.607Z,98.00
2019-04-25T21:41:17.792Z,98.50
2019-04-25T21:43:49.785Z,98.70
2019-04-25T21:46:17.831Z,99.10
2019-04-25T21:48:45.987Z,99.30
2019-04-25T21:51:32.191Z,99.40
2019-04-25T21:54:01.403Z,99.40
2019-04-25T21:56:29.717Z,99.40
2019-04-25T21:58:57.756Z,99.60
2019-04-25T22:01:28.718Z,99.80
2019-04-25T22:03:56.703Z,99.90
2019-04-25T22:06:24.889Z,99.90
2019-04-25T22:08:52.693Z,99.90
2019-04-25T22:11:20.522Z,99.90
2019-04-25T22:13:48.744Z,99.90
2019-04-25T22:16:16.679Z,99.90
2019-04-25T22:18:44.753Z,99.90
2019-04-25T22:21:13.888Z,99.90
2019-04-25T22:23:42.034Z,99.90
2019-04-25T22:26:10.296Z,99.90
2019-04-25T22:28:38.701Z,99.90
2019-04-25T22:31:12.447Z,99.90
2019-04-25T22:34:05.804Z,99.90
2019-04-25T22:36:33.931Z,99.90
2019-04-25T22:39:11.224Z,99.90
2019-04-25T22:41:41.441Z,99.90
2019-04-25T22:44:10.919Z,99.90
2019-04-25T22:46:39.923Z,99.90
2019-04-25T22:49:07.752Z,99.90
2019-04-25T22:51:35.787Z,99.90
2019-04-25T22:54:05.272Z,99.90
2019-04-25T22:56:33.244Z,99.90
2019-04-25T22:59:01.564Z,99.90
2019-04-25T23:01:42.776Z,99.90
2019-04-25T23:04:16.707Z,99.90
2019-04-25T23:06:44.936Z,99.90
2019-04-25T23:09:12.779Z,99.90
2019-04-25T23:11:40.600Z,99.90
2019-04-25T23:14:08.867Z,99.90
2019-04-25T23:16:36.956Z,99.90
2019-04-25T23:19:05.111Z,99.90
2019-04-25T23:21:33.262Z,99.90
2019-04-25T23:24:01.068Z,99.90
2019-04-25T23:26:48.321Z,99.90
2019-04-25T23:29:16.461Z,99.90
2019-04-25T23:31:44.326Z,99.90
2019-04-25T23:34:12.852Z,99.90
2019-04-25T23:36:40.830Z,99.90
2019-04-25T23:39:09.919Z,99.90
2019-04-25T23:41:39.987Z,99.90
2019-04-25T23:44:07.996Z,99.90
2019-04-25T23:46:36.126Z,99.90
2019-04-25T23:49:04.669Z,99.90
2019-04-25T23:51:32.601Z,99.90
2019-04-25T23:54:00.693Z,99.90
2019-04-25T23:56:28.519Z,99.90
2019-04-25T23:58:56.858Z,99.90
